createdAt,value
2018-10-02T04:59:16.854Z,9.10
2018-10-02T05:01:44.320Z,9.27
2018-10-02T05:04:11.873Z,9.40
2018-10-02T05:06:40.232Z,9.52
2018-10-02T05:09:07.677Z,9.57
2018-10-02T05:11:35.067Z,9.61
2018-10-02T05:14:02.553Z,9.66
2018-10-02T05:16:30.041Z,9.68
2018-10-02T05:18:57.455Z,9.75
2018-10-02T05:21:24.901Z,9.76
2018-10-02T05:23:52.338Z,9.77
2018-10-02T05:26:19.759Z,9.79
2018-10-02T05:28:47.219Z,9.77
2018-10-02T05:31:14.656Z,9.80
2018-10-02T05:33:42.069Z,9.83
2018-10-02T05:36:09.507Z,9.56
2018-10-02T05:38:37.929Z,9.48
2018-10-02T05:41:05.396Z,9.41
2018-10-02T05:43:32.839Z,9.56
2018-10-02T05:46:00.283Z,9.62
2018-10-02T05:48:27.827Z,9.75
2018-10-02T05:50:55.264Z,9.83
2018-10-02T05:53:22.797Z,9.87
2018-10-02T05:55:50.215Z,9.94
2018-10-02T05:58:17.846Z,10.12
2018-10-02T06:00:45.273Z,10.65
2018-10-02T06:03:12.746Z,11.37
2018-10-02T06:05:40.158Z,12.13
2018-10-02T06:08:10.287Z,12.71
2018-10-02T06:10:37.784Z,12.92
2018-10-02T06:13:05.292Z,12.64
2018-10-02T06:15:32.709Z,12.94
2018-10-02T06:18:00.231Z,12.90
2018-10-02T06:20:27.693Z,13.07
2018-10-02T06:22:55.213Z,13.61
2018-10-02T06:25:22.823Z,14.07
2018-10-02T06:27:50.553Z,14.09
2018-10-02T06:30:18.044Z,13.18
2018-10-02T06:32:45.634Z,12.54
2018-10-02T06:35:13.198Z,12.13
2018-10-02T06:37:40.693Z,12.08
2018-10-02T06:40:08.250Z,12.50
2018-10-02T06:42:35.701Z,12.91
2018-10-02T06:45:03.213Z,12.76
2018-10-02T06:47:30.558Z,12.86
2018-10-02T06:49:58.145Z,12.99
2018-10-02T06:52:25.848Z,12.90
2018-10-02T06:54:53.182Z,13.80
2018-10-02T06:57:20.611Z,14.82
2018-10-02T06:59:48.084Z,16.15
2018-10-02T07:02:15.518Z,17.12
2018-10-02T07:04:42.916Z,17.62
2018-10-02T07:07:10.338Z,17.90
2018-10-02T07:09:37.879Z,17.41
2018-10-02T07:12:05.329Z,17.04
2018-10-02T07:14:34.169Z,16.53
2018-10-02T07:17:01.964Z,16.51
2018-10-02T07:19:29.425Z,16.59
2018-10-02T07:21:57.005Z,16.86
2018-10-02T07:24:24.498Z,17.07
2018-10-02T07:26:51.992Z,18.08
2018-10-02T07:29:19.359Z,17.51
2018-10-02T07:31:46.816Z,16.71
2018-10-02T07:34:14.299Z,15.69
2018-10-02T07:36:41.949Z,14.96
2018-10-02T07:39:09.302Z,15.85
2018-10-02T07:41:36.836Z,17.57
2018-10-02T07:44:04.176Z,18.46
2018-10-02T07:46:31.259Z,19.46
2018-10-02T07:48:58.330Z,19.33
2018-10-02T07:51:25.447Z,17.67
2018-10-02T07:53:52.551Z,16.66
2018-10-02T07:56:19.561Z,15.75
2018-10-02T07:58:46.606Z,15.23
2018-10-02T08:01:13.549Z,15.13
2018-10-02T08:03:40.979Z,14.90
2018-10-02T08:06:08.491Z,14.62
2018-10-02T08:08:35.941Z,14.52
2018-10-02T08:11:03.386Z,14.68
2018-10-02T08:13:30.841Z,15.74
2018-10-02T08:15:58.268Z,17.09
2018-10-02T08:18:25.522Z,17.11
2018-10-02T08:20:52.524Z,17.91
2018-10-02T08:23:19.603Z,19.70
2018-10-02T08:25:46.735Z,20.30
2018-10-02T08:28:13.763Z,20.45
2018-10-02T08:30:40.741Z,19.64
2018-10-02T08:33:07.721Z,19.77
2018-10-02T08:35:34.723Z,20.17
2018-10-02T08:38:01.614Z,20.53
2018-10-02T08:40:28.636Z,21.21
2018-10-02T08:42:55.641Z,22.08
2018-10-02T08:45:22.636Z,21.14
2018-10-02T08:47:50.355Z,21.06
2018-10-02T08:50:17.335Z,21.56
2018-10-02T08:52:44.329Z,21.51
2018-10-02T08:55:11.344Z,21.43
2018-10-02T08:57:38.371Z,21.43
2018-10-02T09:00:05.353Z,21.95
2018-10-02T09:02:32.356Z,22.21
2018-10-02T09:04:59.341Z,20.83
2018-10-02T09:07:26.431Z,19.44
2018-10-02T09:09:53.537Z,19.42
2018-10-02T09:12:20.569Z,19.96
2018-10-02T09:14:47.523Z,20.80
2018-10-02T09:17:15.016Z,19.95
2018-10-02T09:19:42.495Z,20.00
2018-10-02T09:22:09.895Z,19.69
2018-10-02T09:24:37.459Z,19.54
2018-10-02T09:27:04.894Z,19.01
2018-10-02T09:29:32.355Z,19.07
2018-10-02T09:32:05.523Z,19.25
2018-10-02T09:37:30.721Z,19.37
2018-10-02T09:43:08.159Z,19.68
2018-10-02T09:45:35.786Z,19.41
2018-10-02T09:48:02.988Z,18.99
2018-10-02T09:50:30.533Z,19.17
2018-10-02T09:52:57.491Z,18.72
2018-10-02T09:55:24.515Z,18.45
2018-10-02T09:57:51.719Z,17.97
2018-10-02T10:00:18.746Z,18.03
2018-10-02T10:02:45.983Z,17.95
2018-10-02T10:05:12.990Z,17.57
2018-10-02T10:07:39.964Z,17.56
2018-10-02T10:10:06.945Z,17.68
2018-10-02T10:12:33.995Z,18.19
2018-10-02T10:15:00.976Z,18.37
2018-10-02T10:17:28.047Z,19.00
2018-10-02T10:19:55.043Z,19.10
2018-10-02T10:22:22.111Z,19.68
2018-10-02T10:24:49.165Z,19.97
2018-10-02T10:27:16.358Z,20.01
2018-10-02T10:29:43.661Z,20.13
2018-10-02T10:32:10.727Z,19.95
2018-10-02T10:34:37.826Z,19.69
2018-10-02T10:37:04.847Z,19.93
2018-10-02T10:39:32.182Z,20.52
2018-10-02T10:41:59.173Z,20.40
2018-10-02T10:44:26.338Z,20.61
2018-10-02T10:46:53.456Z,20.57
2018-10-02T10:49:20.388Z,20.31
2018-10-02T10:51:47.649Z,20.01
2018-10-02T10:54:14.735Z,20.06
2018-10-02T10:56:41.842Z,19.63
2018-10-02T10:59:08.829Z,19.91
2018-10-02T11:01:36.252Z,20.21
2018-10-02T11:04:03.696Z,20.34
2018-10-02T11:09:05.015Z,20.10
2018-10-02T11:11:32.419Z,20.21
2018-10-02T11:13:59.984Z,20.61
2018-10-02T11:16:27.541Z,20.87
2018-10-02T11:18:55.136Z,20.76
2018-10-02T11:21:22.672Z,20.53
2018-10-02T11:23:50.363Z,20.10
2018-10-02T11:26:18.915Z,20.37
2018-10-02T11:28:46.383Z,20.45
2018-10-02T11:31:13.821Z,19.99
2018-10-02T11:33:41.220Z,20.07
2018-10-02T11:36:09.120Z,20.19
2018-10-02T11:38:36.569Z,20.52
2018-10-02T11:41:04.310Z,20.09
2018-10-02T11:43:31.356Z,20.32
2018-10-02T11:45:58.335Z,20.54
2018-10-02T11:48:25.444Z,20.91
2018-10-02T11:50:52.955Z,21.65
2018-10-02T11:53:20.416Z,21.52
2018-10-02T11:55:48.000Z,21.51
2018-10-02T11:58:15.392Z,21.37
2018-10-02T12:00:43.045Z,21.01
2018-10-02T12:03:10.717Z,20.65
2018-10-02T12:05:38.118Z,20.63
2018-10-02T12:08:05.657Z,20.40
2018-10-02T12:10:33.282Z,20.66
2018-10-02T12:13:00.831Z,20.53
2018-10-02T12:15:28.306Z,20.89
2018-10-02T12:17:55.785Z,21.04
2018-10-02T12:20:23.243Z,21.19
2018-10-02T12:22:50.673Z,21.57
2018-10-02T12:25:18.175Z,21.84
2018-10-02T12:27:45.673Z,21.92
2018-10-02T12:30:13.086Z,21.82
2018-10-02T12:32:41.372Z,21.94
2018-10-02T12:35:08.858Z,22.19
2018-10-02T12:37:36.281Z,22.41
2018-10-02T12:40:03.767Z,22.48
2018-10-02T12:42:31.532Z,22.15
2018-10-02T12:44:58.987Z,21.95
2018-10-02T12:47:26.600Z,21.97
2018-10-02T12:49:54.079Z,22.17
2018-10-02T12:52:21.707Z,22.21
2018-10-02T12:54:49.176Z,22.11
2018-10-02T12:57:18.027Z,22.19
2018-10-02T12:59:45.420Z,22.17
2018-10-02T13:02:12.957Z,22.00
2018-10-02T13:04:40.456Z,21.37
2018-10-02T13:07:08.027Z,20.86
2018-10-02T13:09:35.484Z,20.31
2018-10-02T13:12:03.048Z,19.91
2018-10-02T13:14:30.814Z,19.77
2018-10-02T13:16:58.385Z,19.84
2018-10-02T13:19:25.866Z,19.95
2018-10-02T13:21:53.346Z,19.85
2018-10-02T13:24:20.848Z,19.79
2018-10-02T13:26:48.263Z,19.30
2018-10-02T13:29:15.944Z,18.95
2018-10-02T13:31:43.348Z,18.64
2018-10-02T13:34:10.797Z,18.36
2018-10-02T13:36:38.217Z,18.41
2018-10-02T13:39:05.616Z,18.40
2018-10-02T13:41:32.759Z,18.71
2018-10-02T13:44:00.221Z,19.21
2018-10-02T13:46:27.817Z,19.39
2018-10-02T13:48:55.247Z,19.40
2018-10-02T13:51:22.692Z,19.25
2018-10-02T13:53:50.131Z,19.14
2018-10-02T13:56:17.583Z,18.96
2018-10-02T13:58:45.016Z,18.77
2018-10-02T14:01:12.527Z,18.77
2018-10-02T14:03:39.959Z,19.14
2018-10-02T14:06:07.526Z,19.37
2018-10-02T14:08:35.075Z,19.58
2018-10-02T14:11:02.664Z,20.12
2018-10-02T14:13:30.188Z,20.98
2018-10-02T14:15:57.693Z,20.90
2018-10-02T14:18:25.136Z,20.51
2018-10-02T14:20:52.593Z,20.84
2018-10-02T14:23:20.098Z,20.66
2018-10-02T14:25:47.706Z,20.42
2018-10-02T14:28:15.207Z,20.47
2018-10-02T14:30:42.677Z,20.84
2018-10-02T14:33:10.156Z,20.58
2018-10-02T14:35:37.606Z,20.10
2018-10-02T14:38:05.035Z,19.85
2018-10-02T14:40:32.518Z,19.27
2018-10-02T14:43:00.008Z,19.16
2018-10-02T14:45:27.416Z,19.15
2018-10-02T14:47:54.890Z,19.08
2018-10-02T14:50:22.356Z,18.97
2018-10-02T14:52:49.797Z,18.77
2018-10-02T14:55:17.223Z,18.65
2018-10-02T14:57:44.653Z,18.38
2018-10-02T15:00:11.643Z,18.24
2018-10-02T15:02:39.051Z,18.20
2018-10-02T15:05:06.513Z,18.25
2018-10-02T15:07:33.951Z,18.26
2018-10-02T15:10:01.415Z,18.34
2018-10-02T15:12:28.846Z,18.36
2018-10-02T15:14:56.286Z,18.31
2018-10-02T15:17:23.796Z,18.30
2018-10-02T15:19:51.216Z,18.34
2018-10-02T15:22:18.674Z,18.39
2018-10-02T15:24:46.160Z,18.38
2018-10-02T15:27:13.583Z,18.28
2018-10-02T15:29:41.050Z,18.25
2018-10-02T15:32:08.615Z,18.14
2018-10-02T15:34:36.137Z,17.98
2018-10-02T15:37:03.632Z,17.93
2018-10-02T15:39:31.098Z,17.96
2018-10-02T15:41:58.691Z,17.98
2018-10-02T15:44:26.152Z,18.04
2018-10-02T15:46:53.653Z,18.09
2018-10-02T15:49:21.144Z,18.00
2018-10-02T15:51:48.723Z,18.09
2018-10-02T15:54:16.316Z,18.02
2018-10-02T15:56:43.901Z,18.01
2018-10-02T15:59:11.582Z,17.83
2018-10-02T16:01:39.148Z,17.83
2018-10-02T16:04:06.549Z,17.73
2018-10-02T16:06:33.966Z,17.76
2018-10-02T16:09:01.502Z,17.92
2018-10-02T16:11:29.090Z,18.08
2018-10-02T16:13:56.531Z,18.19
2018-10-02T16:16:24.048Z,18.19
2018-10-02T16:18:51.512Z,17.88
2018-10-02T16:21:18.989Z,17.68
2018-10-02T16:23:46.419Z,17.52
2018-10-02T16:26:13.992Z,17.44
2018-10-02T16:28:41.395Z,17.37
2018-10-02T16:31:08.888Z,17.26
2018-10-02T16:33:36.445Z,17.27
2018-10-02T16:36:03.894Z,17.21
2018-10-02T16:38:31.338Z,17.05
2018-10-02T16:40:58.918Z,16.94
2018-10-02T16:43:26.495Z,16.89
2018-10-02T16:45:54.063Z,16.96
2018-10-02T16:48:21.514Z,17.07
2018-10-02T16:50:48.973Z,17.18
2018-10-02T16:53:16.165Z,17.25
2018-10-02T16:55:43.179Z,17.09
2018-10-02T16:58:10.593Z,16.97
2018-10-02T17:00:38.020Z,16.88
2018-10-02T17:03:05.471Z,16.85
2018-10-02T17:05:32.909Z,16.81
2018-10-02T17:08:00.484Z,16.75
2018-10-02T17:10:27.513Z,16.74
2018-10-02T17:12:54.493Z,16.74
2018-10-02T17:15:22.891Z,16.73
2018-10-02T17:17:50.331Z,16.75
2018-10-02T17:20:17.816Z,16.68
2018-10-02T17:22:45.536Z,16.59
2018-10-02T17:25:13.013Z,16.51
2018-10-02T17:27:40.499Z,16.44
2018-10-02T17:30:08.048Z,16.38
2018-10-02T17:32:35.577Z,16.39
2018-10-02T17:35:03.026Z,16.42
2018-10-02T17:37:30.477Z,16.39
2018-10-02T17:39:58.035Z,16.32
2018-10-02T17:42:25.475Z,16.22
2018-10-02T17:44:52.954Z,16.17
2018-10-02T17:47:20.396Z,16.19
2018-10-02T17:49:47.808Z,16.16
2018-10-02T17:52:15.252Z,16.15
2018-10-02T17:54:42.754Z,16.06
2018-10-02T17:57:10.283Z,16.03
2018-10-02T17:59:37.698Z,15.99
2018-10-02T18:02:05.405Z,15.99
2018-10-02T18:04:32.854Z,16.02
2018-10-02T18:07:00.411Z,15.99
2018-10-02T18:09:27.905Z,15.98
2018-10-02T18:11:55.402Z,15.98
2018-10-02T18:14:22.855Z,16.02
2018-10-02T18:16:50.309Z,16.05
2018-10-02T18:19:17.748Z,16.11
2018-10-02T18:21:45.463Z,16.12
2018-10-02T18:24:12.887Z,16.17
2018-10-02T18:26:39.919Z,16.23
2018-10-02T18:29:06.914Z,16.23
2018-10-02T18:31:33.915Z,16.19
2018-10-02T18:34:00.964Z,16.17
2018-10-02T18:36:28.270Z,16.14
2018-10-02T18:38:55.374Z,16.25
2018-10-02T18:41:23.267Z,16.35
2018-10-02T18:43:50.625Z,16.36
2018-10-02T18:46:17.687Z,16.36
2018-10-02T18:48:44.692Z,16.38
2018-10-02T18:51:11.646Z,16.34
2018-10-02T18:56:04.178Z,16.29
2018-10-02T18:58:31.181Z,16.26
2018-10-02T19:00:58.128Z,16.22
2018-10-02T19:03:25.160Z,16.16
2018-10-02T19:05:52.191Z,16.08
2018-10-02T19:08:19.255Z,15.97
2018-10-02T19:10:46.233Z,15.87
2018-10-02T19:13:13.251Z,15.74
2018-10-02T19:15:40.220Z,15.70
2018-10-02T19:18:07.280Z,15.70
2018-10-02T19:20:39.854Z,15.68
2018-10-02T19:23:06.920Z,15.68
2018-10-02T19:25:33.968Z,15.71
2018-10-02T19:28:01.014Z,15.73
2018-10-02T19:30:28.006Z,15.74
2018-10-02T19:32:55.112Z,15.74
2018-10-02T19:35:22.083Z,15.75
2018-10-02T19:37:49.177Z,15.74
2018-10-02T19:40:16.219Z,15.74
2018-10-02T19:42:43.314Z,15.72
2018-10-02T19:45:10.336Z,15.73
2018-10-02T19:47:37.362Z,15.79
2018-10-02T19:50:04.412Z,15.81
2018-10-02T19:52:31.456Z,15.80
2018-10-02T19:54:58.481Z,15.81
2018-10-02T19:57:25.560Z,15.83
2018-10-02T19:59:52.568Z,15.87
2018-10-02T20:02:19.568Z,15.91
2018-10-02T20:04:46.545Z,15.87
2018-10-02T20:07:13.516Z,15.80
2018-10-02T20:09:40.537Z,15.75
2018-10-02T20:12:07.617Z,15.72
2018-10-02T20:14:34.617Z,15.70
2018-10-02T20:17:01.612Z,15.69
2018-10-02T20:19:28.590Z,15.67
2018-10-02T20:21:55.643Z,15.62
2018-10-02T20:24:22.619Z,15.58
2018-10-02T20:26:49.774Z,15.59
2018-10-02T20:29:16.764Z,15.61
2018-10-02T20:31:43.762Z,15.67
2018-10-02T20:34:10.815Z,15.72
2018-10-02T20:36:37.861Z,15.79
2018-10-02T20:39:04.853Z,15.78
2018-10-02T20:41:31.893Z,15.71
2018-10-02T20:43:58.912Z,15.64
2018-10-02T20:46:25.940Z,15.56
2018-10-02T20:48:53.105Z,15.52
2018-10-02T20:51:20.143Z,15.47
2018-10-02T20:53:47.129Z,15.41
2018-10-02T20:56:14.247Z,15.36
2018-10-02T20:58:41.256Z,15.34
2018-10-02T21:01:08.280Z,15.34
2018-10-02T21:03:35.256Z,15.34
2018-10-02T21:06:02.271Z,15.32
2018-10-02T21:08:29.311Z,15.32
2018-10-02T21:10:56.308Z,15.31
2018-10-02T21:13:23.307Z,15.28
2018-10-02T21:15:50.306Z,15.26
2018-10-02T21:18:17.266Z,15.18
2018-10-02T21:20:44.312Z,15.03
2018-10-02T21:23:11.266Z,15.01
2018-10-02T21:25:38.226Z,14.95
2018-10-02T21:28:05.176Z,14.78
2018-10-02T21:30:32.727Z,14.76
2018-10-02T21:33:00.178Z,14.78
2018-10-02T21:35:27.624Z,14.70
2018-10-02T21:37:55.093Z,14.62
2018-10-02T21:40:22.653Z,14.38
2018-10-02T21:42:49.999Z,14.30
2018-10-02T21:45:17.404Z,14.30
2018-10-02T21:47:44.923Z,14.31
2018-10-02T21:50:12.369Z,14.28
2018-10-02T21:52:39.823Z,14.18
2018-10-02T21:55:07.300Z,14.04
2018-10-02T21:57:34.817Z,13.94
2018-10-02T22:00:02.731Z,13.79
2018-10-02T22:05:03.996Z,13.68
2018-10-02T22:07:31.729Z,13.64
2018-10-02T22:09:59.191Z,13.66
2018-10-02T22:12:26.661Z,13.72
2018-10-02T22:14:54.137Z,13.73
2018-10-02T22:17:21.610Z,13.78
2018-10-02T22:19:49.087Z,13.77
2018-10-02T22:22:16.567Z,13.77
2018-10-02T22:24:43.977Z,13.83
2018-10-02T22:27:11.467Z,13.90
2018-10-02T22:29:38.946Z,13.96
2018-10-02T22:32:06.371Z,13.98
2018-10-02T22:34:33.798Z,13.99
2018-10-02T22:37:01.224Z,13.96
2018-10-02T22:39:28.662Z,14.01
2018-10-02T22:41:56.157Z,14.03
2018-10-02T22:44:23.577Z,14.05
2018-10-02T22:46:51.026Z,14.09
2018-10-02T22:49:18.474Z,14.11
2018-10-02T22:51:45.909Z,14.05
2018-10-02T22:54:13.383Z,13.89
2018-10-02T22:56:40.920Z,13.75
2018-10-02T22:59:08.539Z,13.64
2018-10-02T23:01:36.094Z,13.59
2018-10-02T23:04:03.656Z,13.51
2018-10-02T23:06:31.079Z,13.64
2018-10-02T23:08:58.595Z,13.74
2018-10-02T23:11:25.997Z,13.76
2018-10-02T23:13:53.407Z,13.75
2018-10-02T23:16:20.869Z,13.74
2018-10-02T23:18:48.349Z,13.74
2018-10-02T23:21:16.044Z,13.82
2018-10-02T23:23:43.464Z,13.80
2018-10-02T23:26:10.893Z,13.71
2018-10-02T23:28:38.356Z,13.60
2018-10-02T23:31:05.751Z,13.61
2018-10-02T23:33:33.273Z,13.58
2018-10-02T23:36:00.701Z,13.65
2018-10-02T23:38:28.185Z,13.70
2018-10-02T23:40:55.621Z,13.68
2018-10-02T23:43:23.032Z,13.64
2018-10-02T23:45:50.441Z,13.69
2018-10-02T23:48:18.450Z,13.68
2018-10-02T23:50:46.392Z,13.65
2018-10-02T23:53:13.845Z,13.59
2018-10-02T23:55:41.286Z,13.56
2018-10-02T23:58:08.735Z,13.49
